createdAt,value
2023-09-10T00:00:53.887Z,2.00
2023-09-10T00:03:20.492Z,2.17
2023-09-10T00:05:46.934Z,2.00
2023-09-10T00:08:13.399Z,2.00
2023-09-10T00:10:40.928Z,1.90
2023-09-10T00:13:07.387Z,2.10
2023-09-10T00:15:33.894Z,2.03
2023-09-10T00:18:00.678Z,2.00
2023-09-10T00:20:28.211Z,2.42
2023-09-10T00:22:56.087Z,2.00
2023-09-10T00:25:22.526Z,2.08
2023-09-10T00:27:48.946Z,2.20
2023-09-10T00:30:15.416Z,2.20
2023-09-10T00:32:41.854Z,2.50
2023-09-10T00:35:09.549Z,2.03
2023-09-10T00:37:36.203Z,1.92
2023-09-10T00:40:02.648Z,2.20
2023-09-10T00:42:29.009Z,1.85
2023-09-10T00:44:55.385Z,1.88
2023-09-10T00:47:22.148Z,2.28
2023-09-10T00:49:50.187Z,2.35
2023-09-10T00:52:18.221Z,1.98
2023-09-10T00:54:44.724Z,2.45
2023-09-10T00:57:11.226Z,2.20
2023-09-10T00:59:37.716Z,1.75
2023-09-10T01:02:04.396Z,2.15
2023-09-10T01:04:30.899Z,2.00
2023-09-10T01:06:57.406Z,2.20
2023-09-10T01:09:29.714Z,2.53
2023-09-10T01:11:59.656Z,2.15
2023-09-10T01:14:34.685Z,1.77
2023-09-10T01:17:04.469Z,2.35
2023-09-10T01:22:15.451Z,1.80
2023-09-10T01:24:55.221Z,2.08
2023-09-10T01:27:21.667Z,1.92
2023-09-10T01:29:48.206Z,2.10
2023-09-10T01:32:29.583Z,2.05
2023-09-10T01:35:18.822Z,2.35
2023-09-10T01:38:29.801Z,1.80
2023-09-10T01:41:10.044Z,2.03
2023-09-10T01:43:36.822Z,2.13
2023-09-10T01:46:04.694Z,2.42
2023-09-10T01:48:31.435Z,2.03
2023-09-10T01:50:57.917Z,2.05
2023-09-10T01:53:24.342Z,2.10
2023-09-10T01:55:50.791Z,2.50
2023-09-10T01:58:17.338Z,2.42
2023-09-10T02:00:43.811Z,2.00
2023-09-10T02:03:10.357Z,2.00
2023-09-10T02:05:36.919Z,2.05
2023-09-10T02:08:04.780Z,2.38
2023-09-10T02:10:33.327Z,2.53
2023-09-10T02:13:00.106Z,2.13
2023-09-10T02:15:27.398Z,2.40
2023-09-10T02:17:54.639Z,2.45
2023-09-10T02:20:21.360Z,2.08
2023-09-10T02:22:47.884Z,2.00
2023-09-10T02:25:14.708Z,2.25
2023-09-10T02:27:41.239Z,2.13
2023-09-10T02:30:08.703Z,2.20
2023-09-10T02:32:36.771Z,2.45
2023-09-10T02:35:04.427Z,2.15
2023-09-10T02:37:32.274Z,1.98
2023-09-10T02:39:58.724Z,2.30
2023-09-10T02:42:25.241Z,2.20
2023-09-10T02:44:51.653Z,2.42
2023-09-10T02:47:18.063Z,2.13
2023-09-10T02:49:44.481Z,2.08
2023-09-10T02:52:10.875Z,2.60
2023-09-10T02:54:37.388Z,2.50
2023-09-10T02:57:03.943Z,2.20
2023-09-10T02:59:30.355Z,2.00
2023-09-10T03:01:56.792Z,2.10
2023-09-10T03:04:23.272Z,2.15
2023-09-10T03:06:51.120Z,1.90
2023-09-10T03:09:18.485Z,2.30
2023-09-10T03:11:46.477Z,1.90
2023-09-10T03:14:13.397Z,2.00
2023-09-10T03:16:40.774Z,1.90
2023-09-10T03:19:07.549Z,2.35
2023-09-10T03:21:33.979Z,2.63
2023-09-10T03:24:00.388Z,2.20
2023-09-10T03:26:26.966Z,2.35
2023-09-10T03:28:53.493Z,2.03
2023-09-10T03:31:19.932Z,2.13
2023-09-10T03:33:46.528Z,2.00
2023-09-10T03:36:13.111Z,2.22
2023-09-10T03:38:39.858Z,1.70
2023-09-10T03:41:06.488Z,1.80
2023-09-10T03:43:32.966Z,2.30
2023-09-10T03:45:59.417Z,2.08
2023-09-10T03:48:25.892Z,1.95
2023-09-10T03:50:52.318Z,1.83
2023-09-10T03:53:18.859Z,2.28
2023-09-10T03:55:45.476Z,2.20
2023-09-10T03:58:11.891Z,2.22
2023-09-10T04:00:38.454Z,2.17
2023-09-10T04:03:06.363Z,2.15
2023-09-10T04:05:32.932Z,2.03
2023-09-10T04:07:59.341Z,2.13
2023-09-10T04:10:28.080Z,2.10
2023-09-10T04:12:54.586Z,2.75
2023-09-10T04:15:21.032Z,2.25
2023-09-10T04:17:47.650Z,2.20
2023-09-10T04:20:14.827Z,2.35
2023-09-10T04:22:41.308Z,2.80
2023-09-10T04:25:08.356Z,2.50
2023-09-10T04:27:34.804Z,2.47
2023-09-10T04:30:01.227Z,2.20
2023-09-10T04:32:27.617Z,2.60
2023-09-10T04:34:54.360Z,2.55
2023-09-10T04:37:21.563Z,2.30
2023-09-10T04:39:49.035Z,2.13
2023-09-10T04:42:15.523Z,2.20
2023-09-10T04:44:41.950Z,2.75
2023-09-10T04:47:08.378Z,2.85
2023-09-10T04:49:34.805Z,2.10
2023-09-10T04:52:01.192Z,2.67
2023-09-10T04:54:27.633Z,2.35
2023-09-10T04:56:55.987Z,2.65
2023-09-10T04:59:23.046Z,2.47
2023-09-10T05:01:49.965Z,2.40
2023-09-10T05:04:16.562Z,2.60
2023-09-10T05:06:43.034Z,2.75
2023-09-10T05:09:09.684Z,3.25
2023-09-10T05:11:36.166Z,3.35
2023-09-10T05:14:03.381Z,3.92
2023-09-10T05:16:30.842Z,3.42
2023-09-10T05:18:57.433Z,3.50
2023-09-10T05:21:23.908Z,3.70
2023-09-10T05:23:50.355Z,4.18
2023-09-10T05:26:17.119Z,4.20
2023-09-10T05:28:46.779Z,4.00
2023-09-10T05:31:13.664Z,3.75
2023-09-10T05:33:40.122Z,4.45
2023-09-10T05:36:06.897Z,3.63
2023-09-10T05:38:33.506Z,4.38
2023-09-10T05:41:04.928Z,4.95
2023-09-10T05:43:32.213Z,4.38
2023-09-10T05:45:59.191Z,4.13
2023-09-10T05:48:25.741Z,4.53
2023-09-10T05:50:59.075Z,4.10
2023-09-10T05:53:25.579Z,3.95
2023-09-10T05:55:52.001Z,4.63
2023-09-10T05:58:20.100Z,4.30
2023-09-10T06:00:47.212Z,4.15
2023-09-10T06:03:13.780Z,4.05
2023-09-10T06:05:40.302Z,4.38
2023-09-10T06:08:06.934Z,4.22
2023-09-10T06:10:33.387Z,4.15
2023-09-10T06:12:59.798Z,4.88
2023-09-10T06:15:27.325Z,4.78
2023-09-10T06:17:53.753Z,5.30
2023-09-10T06:20:20.293Z,4.70
2023-09-10T06:22:46.724Z,4.75
2023-09-10T06:25:13.154Z,4.45
2023-09-10T06:27:39.618Z,4.97
2023-09-10T06:30:06.617Z,6.28
2023-09-10T06:32:33.067Z,5.63
2023-09-10T06:34:59.590Z,5.20
2023-09-10T06:37:26.222Z,6.00
2023-09-10T06:39:52.705Z,6.10
2023-09-10T06:42:19.373Z,6.13
2023-09-10T06:44:45.763Z,6.55
2023-09-10T06:47:12.940Z,6.72
2023-09-10T06:49:43.080Z,7.03
2023-09-10T06:52:10.808Z,7.10
2023-09-10T06:54:37.265Z,6.85
2023-09-10T06:57:03.996Z,6.75
2023-09-10T06:59:30.527Z,8.15
2023-09-10T07:01:57.320Z,7.78
2023-09-10T07:04:25.761Z,7.50
2023-09-10T07:06:53.550Z,7.68
2023-09-10T07:09:22.895Z,7.97
2023-09-10T07:11:50.329Z,8.25
2023-09-10T07:14:16.860Z,7.90
2023-09-10T07:16:43.831Z,8.43
2023-09-10T07:19:10.309Z,8.20
2023-09-10T07:21:36.789Z,8.55
2023-09-10T07:24:07.470Z,8.15
2023-09-10T07:26:35.094Z,8.75
2023-09-10T07:29:01.600Z,8.23
2023-09-10T07:31:28.148Z,8.93
2023-09-10T07:33:54.589Z,9.07
2023-09-10T07:36:21.070Z,8.68
2023-09-10T07:38:47.505Z,8.60
2023-09-10T07:41:13.947Z,9.02
2023-09-10T07:43:40.576Z,8.90
2023-09-10T07:46:07.068Z,8.80
2023-09-10T07:48:33.520Z,9.57
2023-09-10T07:51:00.339Z,8.73
2023-09-10T07:53:26.842Z,8.10
2023-09-10T07:55:53.397Z,8.95
2023-09-10T07:58:19.824Z,9.65
2023-09-10T08:00:46.267Z,9.45
2023-09-10T08:03:15.251Z,8.82
2023-09-10T08:05:43.480Z,8.90
2023-09-10T08:08:09.909Z,9.68
2023-09-10T08:10:36.343Z,8.75
2023-09-10T08:13:04.964Z,8.98
2023-09-10T08:15:34.580Z,9.50
2023-09-10T08:18:01.238Z,9.65
2023-09-10T08:20:27.725Z,9.30
2023-09-10T08:22:54.138Z,10.07
2023-09-10T08:25:20.788Z,10.25
2023-09-10T08:27:47.243Z,9.48
2023-09-10T08:30:13.792Z,9.65
2023-09-10T08:32:40.272Z,9.77
2023-09-10T08:35:07.471Z,9.55
2023-09-10T08:37:33.890Z,8.82
2023-09-10T08:40:00.427Z,8.95
2023-09-10T08:42:29.880Z,9.18
2023-09-10T08:45:02.011Z,9.02
2023-09-10T08:47:30.835Z,8.82
2023-09-10T08:50:03.252Z,8.68
2023-09-10T08:52:31.445Z,8.57
2023-09-10T08:54:57.992Z,8.57
2023-09-10T08:57:25.867Z,9.50
2023-09-10T08:59:53.106Z,8.73
2023-09-10T09:02:19.820Z,8.25
2023-09-10T09:04:46.419Z,8.68
2023-09-10T09:07:14.108Z,8.93
2023-09-10T09:09:46.030Z,8.95
2023-09-10T09:12:14.714Z,8.85
2023-09-10T09:14:43.926Z,9.13
2023-09-10T09:17:14.850Z,8.63
2023-09-10T09:19:44.970Z,7.63
2023-09-10T09:22:14.059Z,8.93
2023-09-10T09:24:41.807Z,8.63
2023-09-10T09:27:09.896Z,7.80
2023-09-10T09:29:36.806Z,8.73
2023-09-10T09:32:03.540Z,7.72
2023-09-10T09:34:29.973Z,8.20
2023-09-10T09:36:56.340Z,8.50
2023-09-10T09:39:23.099Z,7.65
2023-09-10T09:41:52.957Z,9.10
2023-09-10T09:46:48.567Z,8.27
2023-09-10T09:49:15.167Z,7.80
2023-09-10T09:51:41.830Z,7.03
2023-09-10T09:54:09.097Z,6.93
2023-09-10T09:56:37.576Z,6.05
2023-09-10T09:59:04.275Z,5.80
2023-09-10T10:01:31.086Z,6.50
2023-09-10T10:03:59.017Z,6.93
2023-09-10T10:06:25.425Z,7.07
2023-09-10T10:08:52.309Z,6.70
2023-09-10T10:11:30.705Z,6.65
2023-09-10T10:14:01.404Z,6.93
2023-09-10T10:16:31.749Z,6.07
2023-09-10T10:18:58.398Z,6.57
2023-09-10T10:21:25.535Z,5.65
2023-09-10T10:23:54.806Z,6.43
2023-09-10T10:26:21.264Z,6.25
2023-09-10T10:28:52.320Z,6.70
2023-09-10T10:31:22.657Z,6.55
2023-09-10T10:34:13.602Z,5.53
2023-09-10T10:36:45.838Z,6.63
2023-09-10T10:39:16.551Z,5.65
2023-09-10T10:41:51.492Z,5.30
2023-09-10T10:44:22.635Z,5.35
2023-09-10T10:46:57.126Z,6.05
2023-09-10T10:49:24.872Z,4.85
2023-09-10T10:51:56.997Z,5.22
2023-09-10T10:54:25.000Z,5.53
2023-09-10T10:56:52.152Z,5.60
2023-09-10T10:59:20.226Z,5.00
2023-09-10T11:02:10.917Z,4.68
2023-09-10T11:04:37.498Z,4.95
2023-09-10T11:07:20.744Z,5.32
2023-09-10T11:09:48.871Z,5.18
2023-09-10T11:12:16.325Z,4.60
2023-09-10T11:15:06.752Z,5.55
2023-09-10T11:17:34.449Z,5.15
2023-09-10T11:20:01.943Z,4.95
2023-09-10T11:22:28.722Z,5.97
2023-09-10T11:25:07.102Z,5.55
2023-09-10T11:27:35.308Z,5.72
2023-09-10T11:30:15.119Z,5.72
2023-09-10T11:35:18.247Z,5.35
2023-09-10T11:37:49.530Z,4.82
2023-09-10T11:40:16.732Z,4.75
2023-09-10T11:42:44.160Z,4.85
2023-09-10T11:45:11.643Z,4.70
2023-09-10T11:47:45.697Z,4.82
2023-09-10T11:50:13.823Z,4.85
2023-09-10T11:52:41.497Z,4.40
2023-09-10T11:55:11.319Z,4.82
2023-09-10T11:57:38.618Z,4.32
2023-09-10T12:00:08.963Z,4.95
2023-09-10T12:02:37.129Z,4.57
2023-09-10T12:05:08.080Z,4.78
2023-09-10T12:07:34.751Z,4.50
2023-09-10T12:10:01.270Z,4.45
2023-09-10T12:12:33.920Z,4.00
2023-09-10T12:15:00.942Z,4.57
2023-09-10T12:17:27.801Z,4.50
2023-09-10T12:19:54.413Z,4.18
2023-09-10T12:22:21.079Z,4.57
2023-09-10T12:24:47.593Z,4.70
2023-09-10T12:27:14.616Z,4.38
2023-09-10T12:29:41.798Z,4.38
2023-09-10T12:32:08.582Z,4.57
2023-09-10T12:34:35.260Z,3.88
2023-09-10T12:37:01.707Z,4.55
2023-09-10T12:39:28.465Z,4.10
2023-09-10T12:41:57.284Z,4.30
2023-09-10T12:44:24.832Z,4.17
2023-09-10T12:46:51.465Z,3.78
2023-09-10T12:49:17.968Z,3.60
2023-09-10T12:51:45.172Z,3.53
2023-09-10T12:54:11.853Z,3.40
2023-09-10T12:56:39.285Z,4.20
2023-09-10T12:59:07.745Z,3.78
2023-09-10T13:01:34.720Z,3.80
2023-09-10T13:04:01.203Z,3.72
2023-09-10T13:06:27.672Z,3.63
2023-09-10T13:08:55.885Z,3.08
2023-09-10T13:11:22.311Z,3.65
2023-09-10T13:13:48.781Z,3.55
2023-09-10T13:16:15.181Z,2.90
2023-09-10T13:18:41.618Z,3.33
2023-09-10T13:21:08.154Z,3.53
2023-09-10T13:23:34.674Z,2.90
2023-09-10T13:26:01.148Z,3.13
2023-09-10T13:28:27.594Z,2.60
2023-09-10T13:30:54.025Z,2.75
2023-09-10T13:33:20.497Z,2.88
2023-09-10T13:35:47.012Z,2.63
2023-09-10T13:38:13.470Z,3.08
2023-09-10T13:40:42.463Z,2.55
2023-09-10T13:43:08.832Z,2.90
2023-09-10T13:45:35.218Z,2.88
2023-09-10T13:48:01.627Z,2.90
2023-09-10T13:50:28.085Z,2.80
2023-09-10T13:52:54.535Z,2.53
2023-09-10T13:55:21.146Z,2.78
2023-09-10T13:57:47.545Z,2.60
2023-09-10T14:00:14.214Z,2.30
2023-09-10T14:02:40.629Z,2.50
2023-09-10T14:05:08.464Z,1.85
2023-09-10T14:07:35.537Z,2.50
2023-09-10T14:10:02.216Z,2.50
2023-09-10T14:12:28.639Z,2.05
2023-09-10T14:14:55.008Z,1.92
2023-09-10T14:17:21.470Z,2.22
2023-09-10T14:19:47.867Z,2.10
2023-09-10T14:22:14.302Z,1.90
2023-09-10T14:24:40.832Z,1.83
2023-09-10T14:27:07.255Z,1.65
2023-09-10T14:29:33.858Z,1.50
2023-09-10T14:32:00.813Z,1.63
2023-09-10T14:34:27.238Z,1.70
2023-09-10T14:36:53.685Z,1.70
2023-09-10T14:39:20.070Z,1.60
2023-09-10T14:41:46.481Z,1.50
2023-09-10T14:44:13.288Z,1.63
2023-09-10T14:46:40.614Z,2.25
2023-09-10T14:49:07.152Z,1.50
2023-09-10T14:51:33.618Z,1.60
2023-09-10T14:54:00.033Z,1.65
2023-09-10T14:56:26.483Z,1.75
2023-09-10T14:58:52.882Z,1.95
2023-09-10T15:01:21.145Z,2.05
2023-09-10T15:03:48.343Z,1.80
2023-09-10T15:06:14.798Z,1.83
2023-09-10T15:08:41.222Z,2.00
2023-09-10T15:11:07.672Z,2.00
2023-09-10T15:13:34.145Z,1.95
2023-09-10T15:16:01.452Z,1.70
2023-09-10T15:18:28.007Z,2.30
2023-09-10T15:20:54.516Z,1.80
2023-09-10T15:23:21.065Z,2.05
2023-09-10T15:25:48.504Z,2.00
2023-09-10T15:28:14.943Z,1.98
2023-09-10T15:30:41.480Z,1.63
2023-09-10T15:33:07.977Z,2.30
2023-09-10T15:35:34.508Z,1.85
2023-09-10T15:38:00.997Z,1.83
2023-09-10T15:40:27.424Z,1.83
2023-09-10T15:42:53.807Z,1.77
2023-09-10T15:45:20.208Z,2.08
2023-09-10T15:47:46.829Z,1.80
2023-09-10T15:50:13.273Z,2.05
2023-09-10T15:52:39.887Z,1.95
2023-09-10T15:55:06.572Z,2.10
2023-09-10T15:57:32.979Z,2.20
2023-09-10T16:00:02.389Z,2.17
2023-09-10T16:02:32.688Z,2.05
2023-09-10T16:04:59.827Z,2.20
2023-09-10T16:07:26.232Z,1.98
2023-09-10T16:09:53.019Z,1.90
2023-09-10T16:12:20.066Z,2.13
2023-09-10T16:14:46.493Z,2.25
2023-09-10T16:17:13.510Z,2.10
2023-09-10T16:19:40.096Z,2.38
2023-09-10T16:22:08.401Z,1.98
2023-09-10T16:24:36.471Z,2.03
2023-09-10T16:27:05.988Z,2.05
2023-09-10T16:29:33.197Z,2.33
2023-09-10T16:32:00.013Z,2.50
2023-09-10T16:34:26.492Z,2.40
2023-09-10T16:36:52.879Z,2.22
2023-09-10T16:39:19.321Z,2.10
2023-09-10T16:41:47.011Z,2.50
2023-09-10T16:44:13.486Z,2.10
2023-09-10T16:46:40.030Z,1.95
2023-09-10T16:49:06.796Z,2.20
2023-09-10T16:51:34.347Z,2.45
2023-09-10T16:54:02.412Z,2.03
2023-09-10T16:56:28.853Z,1.90
2023-09-10T16:58:58.794Z,2.10
2023-09-10T17:01:25.389Z,2.50
2023-09-10T17:03:51.916Z,2.28
2023-09-10T17:06:18.417Z,2.20
2023-09-10T17:08:45.121Z,2.35
2023-09-10T17:11:12.363Z,1.95
2023-09-10T17:13:45.753Z,2.10
2023-09-10T17:16:14.657Z,1.88
2023-09-10T17:18:42.056Z,2.00
2023-09-10T17:21:09.773Z,2.20
2023-09-10T17:23:36.257Z,2.00
2023-09-10T17:26:04.392Z,1.90
2023-09-10T17:28:31.497Z,1.70
2023-09-10T17:30:58.052Z,1.88
2023-09-10T17:33:24.910Z,2.20
2023-09-10T17:35:51.474Z,2.40
2023-09-10T17:38:17.937Z,2.40
2023-09-10T17:40:44.632Z,2.08
2023-09-10T17:43:11.086Z,1.90
2023-09-10T17:45:37.704Z,2.00
2023-09-10T17:48:05.076Z,1.90
2023-09-10T17:50:31.708Z,1.98
2023-09-10T17:52:58.219Z,1.90
2023-09-10T17:55:25.420Z,2.17
2023-09-10T17:57:51.835Z,1.98
2023-09-10T18:00:18.384Z,2.03
2023-09-10T18:02:45.199Z,2.10
2023-09-10T18:05:11.779Z,1.80
2023-09-10T18:07:38.264Z,2.00
2023-09-10T18:10:05.102Z,1.90
2023-09-10T18:12:31.591Z,1.95
2023-09-10T18:14:58.253Z,1.80
2023-09-10T18:17:24.866Z,1.90
2023-09-10T18:19:51.413Z,1.90
2023-09-10T18:22:17.916Z,2.08
2023-09-10T18:24:45.049Z,2.08
2023-09-10T18:27:11.492Z,2.00
2023-09-10T18:29:40.790Z,1.90
2023-09-10T18:32:07.629Z,2.38
2023-09-10T18:34:34.174Z,2.17
2023-09-10T18:37:00.669Z,2.10
2023-09-10T18:39:27.171Z,2.22
2023-09-10T18:41:53.576Z,2.25
2023-09-10T18:44:20.252Z,2.08
2023-09-10T18:46:54.342Z,2.20
2023-09-10T18:49:20.765Z,1.90
2023-09-10T18:52:05.826Z,1.88
2023-09-10T18:54:32.540Z,2.25
2023-09-10T18:56:59.156Z,2.30
2023-09-10T18:59:25.589Z,1.95
2023-09-10T19:01:52.139Z,2.40
2023-09-10T19:04:22.159Z,2.30
2023-09-10T19:06:48.789Z,1.95
2023-09-10T19:09:17.403Z,1.95
2023-09-10T19:11:47.174Z,2.40
2023-09-10T19:16:40.389Z,2.35
2023-09-10T19:19:10.276Z,1.92
2023-09-10T19:24:03.812Z,1.70
2023-09-10T19:26:30.691Z,1.80
2023-09-10T19:28:57.355Z,2.00
2023-09-10T19:31:31.733Z,2.20
2023-09-10T19:34:03.937Z,2.05
2023-09-10T19:36:34.366Z,2.10
2023-09-10T19:39:08.539Z,1.98
2023-09-10T19:41:35.928Z,2.30
2023-09-10T19:44:03.523Z,1.75
2023-09-10T19:46:30.552Z,2.38
2023-09-10T19:48:57.231Z,2.10
2023-09-10T19:51:24.206Z,1.95
2023-09-10T19:53:51.654Z,2.25
2023-09-10T19:56:18.387Z,2.22
2023-09-10T19:59:06.607Z,2.42
2023-09-10T20:01:38.468Z,1.98
2023-09-10T20:04:05.082Z,2.20
2023-09-10T20:06:32.066Z,2.13
2023-09-10T20:08:58.917Z,2.35
2023-09-10T20:11:25.375Z,2.28
2023-09-10T20:13:51.822Z,2.08
2023-09-10T20:16:18.328Z,2.25
2023-09-10T20:18:45.998Z,2.10
2023-09-10T20:21:12.534Z,2.28
2023-09-10T20:23:40.617Z,2.25
2023-09-10T20:26:10.848Z,2.33
2023-09-10T20:28:37.834Z,2.35
2023-09-10T20:31:05.326Z,2.08
2023-09-10T20:33:33.103Z,2.05
2023-09-10T20:35:59.633Z,2.17
2023-09-10T20:38:26.298Z,2.20
2023-09-10T20:40:52.788Z,2.08
2023-09-10T20:43:19.168Z,2.45
2023-09-10T20:45:47.171Z,2.10
2023-09-10T20:48:13.597Z,2.30
2023-09-10T20:50:40.043Z,2.20
2023-09-10T20:53:06.428Z,2.55
2023-09-10T20:55:32.874Z,2.55
2023-09-10T20:57:59.270Z,2.40
2023-09-10T21:00:26.194Z,2.33
2023-09-10T21:02:57.038Z,2.40
2023-09-10T21:05:24.414Z,2.30
2023-09-10T21:07:51.416Z,2.13
2023-09-10T21:10:18.041Z,1.90
2023-09-10T21:12:46.199Z,1.85
2023-09-10T21:15:15.951Z,2.38
2023-09-10T21:17:42.458Z,2.10
2023-09-10T21:20:09.658Z,1.92
2023-09-10T21:22:36.138Z,2.10
2023-09-10T21:25:02.731Z,2.30
2023-09-10T21:27:29.111Z,2.03
2023-09-10T21:29:55.486Z,2.13
2023-09-10T21:32:21.964Z,2.30
2023-09-10T21:34:48.430Z,1.95
2023-09-10T21:37:14.823Z,2.03
2023-09-10T21:39:42.915Z,2.28
2023-09-10T21:42:09.600Z,2.20
2023-09-10T21:44:36.626Z,2.20
2023-09-10T21:47:03.484Z,2.30
2023-09-10T21:49:29.970Z,2.42
2023-09-10T21:51:56.371Z,2.38
2023-09-10T21:54:25.810Z,2.35
2023-09-10T21:56:52.460Z,2.30
2023-09-10T21:59:21.880Z,2.20
2023-09-10T22:01:48.718Z,2.72
2023-09-10T22:04:15.363Z,2.38
2023-09-10T22:06:41.856Z,2.42
2023-09-10T22:09:08.328Z,2.30
2023-09-10T22:11:35.049Z,2.33
2023-09-10T22:14:01.525Z,2.40
2023-09-10T22:16:28.053Z,1.90
2023-09-10T22:18:54.493Z,2.30
2023-09-10T22:21:20.881Z,2.30
2023-09-10T22:23:47.340Z,2.47
2023-09-10T22:26:13.993Z,2.60
2023-09-10T22:28:45.946Z,2.30
2023-09-10T22:31:13.034Z,2.65
2023-09-10T22:33:41.475Z,2.92
2023-09-10T22:36:23.262Z,2.50
2023-09-10T22:38:56.629Z,2.67
2023-09-10T22:41:23.103Z,2.35
2023-09-10T22:43:49.520Z,2.63
2023-09-10T22:46:15.894Z,2.40
2023-09-10T22:48:42.438Z,3.03
2023-09-10T22:51:09.331Z,2.80
2023-09-10T22:53:35.776Z,2.38
2023-09-10T22:56:02.617Z,2.47
2023-09-10T22:58:29.013Z,2.60
2023-09-10T23:00:55.364Z,2.17
2023-09-10T23:03:21.864Z,2.40
2023-09-10T23:05:49.087Z,2.85
2023-09-10T23:08:15.574Z,2.88
2023-09-10T23:10:42.132Z,2.80
2023-09-10T23:13:09.561Z,2.80
2023-09-10T23:15:35.940Z,3.20
2023-09-10T23:18:02.862Z,2.83
2023-09-10T23:20:29.361Z,2.60
2023-09-10T23:23:00.047Z,2.63
2023-09-10T23:25:26.831Z,2.67
2023-09-10T23:27:53.276Z,3.03
2023-09-10T23:30:19.707Z,2.60
2023-09-10T23:32:46.261Z,2.75
2023-09-10T23:35:13.257Z,2.53
2023-09-10T23:37:39.848Z,2.90
2023-09-10T23:40:06.733Z,2.92
2023-09-10T23:42:35.104Z,3.00
2023-09-10T23:45:01.506Z,3.20
2023-09-10T23:47:28.051Z,2.88
2023-09-10T23:49:54.485Z,3.20
2023-09-10T23:52:20.861Z,2.63
2023-09-10T23:54:47.298Z,2.80
2023-09-10T23:57:13.710Z,3.00
2023-09-10T23:59:40.117Z,2.60
